Time;durP1;ratioP1;P1;durP2;ratioP2;P2;SDS_P1;SDS_P2;PMS_P1;PMS_P2;Temp;Humidity;BMP_temperature;BMP_pressure;BME280_temperature;BME280_humidity;BME280_pressure;Samples;Min_cycle;Max_cycle;Signal;HPM_P1;HPM_P2
2022/11/07 00:00:29;;;;;;;;;4.33;2.00;;;;;12.23;100.00;100463.31;6252057;22;45312;-83
2022/11/07 00:02:54;;;;;;;;;2.00;2.00;;;;;12.25;100.00;100461.53;6226204;22;45471;-84
2022/11/07 00:05:21;;;;;;;;;4.00;4.00;;;;;12.28;100.00;100461.53;6253422;22;45383;-84
2022/11/07 00:07:46;;;;;;;;;6.00;4.00;;;;;12.27;100.00;100463.31;6252272;22;47148;-84
2022/11/07 00:10:12;;;;;;;;;2.00;2.00;;;;;12.29;100.00;100463.31;6252328;22;45373;-82
2022/11/07 00:16:05;;;;;;;;;3.33;3.33;;;;;12.28;100.00;100450.84;6253137;22;45417;-83
2022/11/07 00:18:31;;;;;;;;;4.25;2.00;;;;;12.29;100.00;100465.97;6253570;22;45307;-85
2022/11/07 00:21:07;;;;;;;;;5.00;3.00;;;;;12.30;100.00;100468.66;6226133;22;45258;-85
2022/11/07 00:23:33;;;;;;;;;4.00;4.00;;;;;12.30;100.00;100454.41;6254008;22;45321;-84
2022/11/07 00:26:08;;;;;;;;;2.33;2.00;;;;;12.27;100.00;100454.44;6254614;22;45342;-84
2022/11/07 00:28:35;;;;;;;;;3.33;2.00;;;;;12.28;100.00;100449.09;6251825;22;48518;-84
2022/11/07 00:31:01;;;;;;;;;4.75;3.00;;;;;12.27;100.00;100449.97;6253608;22;45471;-84
2022/11/07 00:33:26;;;;;;;;;7.00;4.67;;;;;12.26;100.00;100444.63;6227507;22;45303;-85
2022/11/07 00:35:52;;;;;;;;;7.33;4.00;;;;;12.31;100.00;100445.56;6247711;22;45072;-85
2022/11/07 00:38:18;;;;;;;;;4.75;2.75;;;;;12.24;100.00;100450.00;6251220;22;45324;-85
2022/11/07 00:40:53;;;;;;;;;2.00;2.00;;;;;12.33;100.00;100454.44;6222967;22;45419;-85
2022/11/07 00:43:18;;;;;;;;;3.00;1.67;;;;;12.34;100.00;100456.22;6248280;22;44826;-85
2022/11/07 00:45:44;;;;;;;;;3.00;3.00;;;;;12.35;100.00;100455.34;6249251;22;45274;-84
2022/11/07 00:48:09;;;;;;;;;6.33;4.33;;;;;12.40;100.00;100450.88;6248218;22;45643;-84
2022/11/07 00:50:36;;;;;;;;;4.67;4.67;;;;;12.34;100.00;100434.88;6248928;22;45436;-85
2022/11/07 00:53:02;;;;;;;;;1.67;1.67;;;;;12.45;100.00;100443.78;6225189;22;45422;-85
2022/11/07 00:55:27;;;;;;;;;8.67;4.33;;;;;12.40;100.00;100434.88;6225981;22;45458;-84
2022/11/07 00:57:55;;;;;;;;;2.00;2.00;;;;;12.47;100.00;100449.13;6252713;22;45400;-84
2022/11/07 01:00:21;;;;;;;;;7.33;4.00;;;;;12.45;100.00;100434.91;6252568;22;45579;-84
2022/11/07 01:05:09;;;;;;;;;3.00;2.00;;;;;12.50;100.00;100442.03;6252929;22;45194;-84
2022/11/07 01:05:32;;;;;;;;;0.00;0.00;;;;;12.52;100.00;100450.00;6253022;22;45293;-84
2022/11/07 01:07:57;;;;;;;;;3.00;3.00;;;;;12.55;100.00;100455.38;6252471;22;45270;-83
2022/11/07 01:10:22;;;;;;;;;5.00;3.00;;;;;12.53;100.00;100450.03;6253423;22;45350;-84
2022/11/07 01:12:48;;;;;;;;;2.00;2.00;;;;;12.56;100.00;100452.72;6253432;22;45694;-84
2022/11/07 01:15:13;;;;;;;;;6.67;3.33;;;;;12.51;100.00;100451.81;6253271;22;45396;-85
2022/11/07 01:17:39;;;;;;;;;3.67;2.33;;;;;12.55;100.00;100455.38;6225033;22;45945;-84
2022/11/07 01:20:05;;;;;;;;;3.00;3.00;;;;;12.61;100.00;100460.72;6225388;22;45381;-84
2022/11/07 01:22:31;;;;;;;;;2.00;2.00;;;;;12.60;100.00;100465.16;6226698;22;45425;-84
2022/11/07 01:24:57;;;;;;;;;5.33;4.33;;;;;12.64;100.00;100459.81;6224181;22;45426;-85
2022/11/07 01:27:22;;;;;;;;;4.00;4.00;;;;;12.56;100.00;100443.78;6224329;22;45540;-85
2022/11/07 01:29:48;;;;;;;;;5.00;3.00;;;;;12.41;100.00;100410.00;6222612;22;45942;-84
2022/11/07 01:32:13;;;;;;;;;6.00;4.00;;;;;12.69;100.00;100453.59;6224171;22;45447;-86
2022/11/07 01:34:39;;;;;;;;;4.33;2.00;;;;;12.57;100.00;100433.13;6249993;22;45463;-85
2022/11/07 01:37:04;;;;;;;;;6.00;2.67;;;;;12.73;100.00;100465.19;6224580;22;46794;-86
2022/11/07 01:39:30;;;;;;;;;5.33;2.00;;;;;12.71;100.00;100469.63;6251457;22;45382;-84
2022/11/07 01:41:55;;;;;;;;;3.00;2.00;;;;;12.66;100.00;100468.72;6226044;22;45386;-84
2022/11/07 01:44:20;;;;;;;;;4.00;2.00;;;;;12.73;100.00;100466.06;6252553;22;45461;-84
2022/11/07 01:46:47;;;;;;;;;1.25;1.25;;;;;12.72;100.00;100464.25;6224836;22;46646;-84
2022/11/07 01:49:19;;;;;;;;;2.50;2.50;;;;;12.75;100.00;100464.28;6250417;22;45303;-87
2022/11/07 01:51:53;;;;;;;;;2.67;2.67;;;;;12.79;100.00;100481.19;6225136;22;45471;-83
2022/11/07 01:54:32;;;;;;;;;5.00;4.67;;;;;12.78;100.00;100482.06;6253324;22;45462;-84
2022/11/07 01:57:02;;;;;;;;;3.33;3.00;;;;;12.75;100.00;100476.75;6250241;22;48260;-85
2022/11/07 01:59:30;;;;;;;;;5.33;2.00;;;;;12.76;100.00;100475.84;6253333;22;45405;-85
2022/11/07 02:01:56;;;;;;;;;3.67;3.67;;;;;12.72;100.00;100474.06;6252463;22;45353;-84
2022/11/07 02:04:24;;;;;;;;;5.00;2.67;;;;;12.72;100.00;100482.06;6253908;22;45323;-84
2022/11/07 02:06:57;;;;;;;;;3.00;2.50;;;;;12.70;100.00;100486.50;6225714;22;47941;-84
2022/11/07 02:09:22;;;;;;;;;4.25;3.00;;;;;12.64;100.00;100483.81;6251851;22;44824;-84
2022/11/07 02:11:48;;;;;;;;;3.00;3.00;;;;;12.63;100.00;100492.75;6253307;22;45286;-84
2022/11/07 02:14:17;;;;;;;;;4.50;4.00;;;;;12.57;100.00;100489.16;6225409;22;45509;-84
2022/11/07 02:16:46;;;;;;;;;5.00;3.50;;;;;12.54;100.00;100486.50;6253365;22;45320;-84
2022/11/07 02:19:26;;;;;;;;;2.67;2.67;;;;;12.57;100.00;100502.50;6253827;22;44772;-83
2022/11/07 02:22:10;;;;;;;;;4.67;4.00;;;;;12.58;100.00;100490.94;6224778;22;44875;-84
2022/11/07 02:24:37;;;;;;;;;3.67;2.00;;;;;12.59;100.00;100495.38;6224486;22;45390;-84
2022/11/07 02:27:08;;;;;;;;;4.00;3.67;;;;;12.54;100.00;100478.50;6224495;22;47884;-84
2022/11/07 02:29:37;;;;;;;;;5.67;4.33;;;;;12.54;100.00;100481.16;6250232;22;45114;-84
2022/11/07 02:32:08;;;;;;;;;2.00;2.00;;;;;12.59;100.00;100484.72;6225521;22;45446;-84
2022/11/07 02:34:34;;;;;;;;;4.00;4.00;;;;;12.54;100.00;100473.16;6251248;22;45307;-84
2022/11/07 02:37:05;;;;;;;;;3.33;3.00;;;;;12.62;100.00;100478.47;6247603;22;45438;-84
2022/11/07 02:39:37;;;;;;;;;3.67;1.00;;;;;12.64;100.00;100475.81;6223562;22;45332;-85
2022/11/07 02:42:05;;;;;;;;;3.00;3.00;;;;;12.59;100.00;100467.81;6223772;22;45458;-84
2022/11/07 02:44:32;;;;;;;;;5.00;3.00;;;;;12.62;100.00;100470.47;6249947;22;44838;-84
2022/11/07 02:46:58;;;;;;;;;2.00;1.67;;;;;12.63;100.00;100474.94;6223516;22;47363;-84
2022/11/07 02:49:26;;;;;;;;;3.33;3.33;;;;;12.67;100.00;100466.06;6247646;22;45577;-85
2022/11/07 02:51:54;;;;;;;;;3.00;2.67;;;;;12.63;100.00;100456.28;6226334;22;45381;-84
2022/11/07 02:54:24;;;;;;;;;4.33;3.67;;;;;12.66;100.00;100447.38;6227149;22;45389;-84
2022/11/07 02:56:50;;;;;;;;;3.33;3.33;;;;;12.63;100.00;100458.94;6251133;22;47087;-84
2022/11/07 02:59:16;;;;;;;;;2.33;2.00;;;;;12.66;100.00;100463.38;6251650;22;45522;-84
2022/11/07 03:01:41;;;;;;;;;2.00;2.00;;;;;12.70;100.00;100458.03;6225341;22;44749;-84
2022/11/07 03:04:07;;;;;;;;;3.75;2.75;;;;;12.74;100.00;100472.28;6224976;22;45410;-83
2022/11/07 03:06:32;;;;;;;;;1.25;1.25;;;;;12.70;100.00;100455.38;6225066;22;45460;-84
2022/11/07 03:08:58;;;;;;;;;3.25;3.25;;;;;12.76;100.00;100467.84;6252169;22;45357;-84
2022/11/07 03:11:23;;;;;;;;;4.00;4.00;;;;;12.75;100.00;100474.06;6224872;22;46199;-84
2022/11/07 03:13:49;;;;;;;;;2.00;1.33;;;;;12.76;100.00;100473.16;6252590;22;45480;-84
2022/11/07 03:16:16;;;;;;;;;8.00;5.00;;;;;12.78;100.00;100482.94;6224940;22;48079;-84
2022/11/07 03:18:42;;;;;;;;;1.67;1.00;;;;;12.73;100.00;100470.50;6226330;22;45307;-84
2022/11/07 03:21:08;;;;;;;;;7.00;4.33;;;;;12.77;100.00;100488.31;6226396;22;45267;-84
2022/11/07 03:23:35;;;;;;;;;9.33;4.67;;;;;12.76;100.00;100483.84;6226072;22;45391;-85
2022/11/07 03:26:01;;;;;;;;;4.00;1.00;;;;;12.73;100.00;100482.06;6254406;22;45377;-84
2022/11/07 03:28:30;;;;;;;;;2.33;2.33;;;;;12.76;100.00;100483.84;6251726;22;45434;-84
2022/11/07 03:31:00;;;;;;;;;3.00;2.00;;;;;12.77;100.00;100491.84;6225766;22;45383;-84
2022/11/07 03:33:26;;;;;;;;;4.33;3.33;;;;;12.81;100.00;100484.75;6252295;22;45557;-84
2022/11/07 03:35:59;;;;;;;;;4.00;2.33;;;;;12.83;100.00;100490.09;6249634;22;47499;-84
2022/11/07 03:38:24;;;;;;;;;5.00;3.33;;;;;12.83;100.00;100487.44;6224698;22;45252;-85
2022/11/07 03:40:50;;;;;;;;;5.33;3.00;;;;;12.84;100.00;100473.19;6250829;22;46014;-84
2022/11/07 03:43:15;;;;;;;;;3.00;2.00;;;;;12.81;100.00;100466.94;6253017;22;45529;-84
2022/11/07 03:45:40;;;;;;;;;5.00;3.33;;;;;12.85;100.00;100473.19;6253214;22;45332;-84
2022/11/07 03:48:06;;;;;;;;;3.00;3.00;;;;;12.86;100.00;100466.94;6252641;22;45325;-84
2022/11/07 03:50:32;;;;;;;;;4.67;3.00;;;;;12.86;100.00;100477.63;6253224;22;45289;-85
2022/11/07 03:52:57;;;;;;;;;4.67;1.33;;;;;12.86;100.00;100466.06;6225719;22;45463;-84
2022/11/07 03:55:22;;;;;;;;;5.00;3.00;;;;;12.85;100.00;100464.31;6253427;22;45515;-85
2022/11/07 03:57:49;;;;;;;;;4.33;4.00;;;;;12.81;100.00;100464.28;6225617;22;45673;-84
2022/11/07 04:00:18;;;;;;;;;5.67;3.33;;;;;12.81;100.00;100474.97;6254852;22;45341;-85
2022/11/07 04:02:43;;;;;;;;;3.33;2.00;;;;;12.83;100.00;100469.63;6255339;22;44805;-85
2022/11/07 04:05:09;;;;;;;;;3.33;2.33;;;;;12.82;100.00;100467.84;6226074;22;48002;-84
2022/11/07 04:07:35;;;;;;;;;4.33;2.00;;;;;12.83;100.00;100474.09;6254978;22;44814;-85
2022/11/07 04:10:03;;;;;;;;;3.67;3.67;;;;;12.82;100.00;100462.50;6225650;22;45398;-84
2022/11/07 04:17:56;;;;;;;;;5.00;2.00;;;;;12.85;100.00;100467.84;6254627;22;45379;-84
2022/11/07 04:20:22;;;;;;;;;5.67;2.67;;;;;12.82;100.00;100459.81;6225107;22;45388;-84
2022/11/07 04:22:47;;;;;;;;;6.00;3.00;;;;;12.84;100.00;100468.72;6250586;22;45407;-84
2022/11/07 04:25:13;;;;;;;;;5.00;3.67;;;;;12.83;100.00;100466.97;6224385;22;47462;-84
2022/11/07 04:27:41;;;;;;;;;4.67;4.67;;;;;12.81;100.00;100474.06;6254029;22;45705;-85
2022/11/07 04:30:27;;;;;;;;;4.50;3.25;;;;;12.81;100.00;100469.63;6254361;22;45289;-84
2022/11/07 04:32:54;;;;;;;;;4.00;2.00;;;;;12.83;100.00;100474.09;6226076;22;45319;-84
2022/11/07 04:35:22;;;;;;;;;4.50;2.75;;;;;12.86;100.00;100482.97;6253616;22;45399;-84
2022/11/07 04:37:48;;;;;;;;;3.25;3.25;;;;;12.81;100.00;100487.41;6251616;22;44866;-84
2022/11/07 04:40:14;;;;;;;;;3.00;3.00;;;;;12.84;100.00;100486.53;6252705;22;45805;-84
2022/11/07 04:42:40;;;;;;;;;1.75;1.75;;;;;12.87;100.00;100484.75;6253022;22;45823;-84
2022/11/07 04:45:06;;;;;;;;;5.00;4.00;;;;;12.87;100.00;100481.19;6253367;22;46374;-84
2022/11/07 04:47:32;;;;;;;;;4.00;3.00;;;;;12.85;100.00;100483.88;6226257;22;45299;-84
2022/11/07 04:49:58;;;;;;;;;1.00;1.00;;;;;12.88;100.00;100490.97;6255054;22;45277;-84
2022/11/07 04:52:27;;;;;;;;;3.67;2.00;;;;;12.92;100.00;100495.44;6227084;22;45406;-85
2022/11/07 04:54:52;;;;;;;;;3.00;3.00;;;;;12.87;100.00;100482.09;6251817;22;47588;-84
2022/11/07 04:57:18;;;;;;;;;4.25;2.00;;;;;12.88;100.00;100483.84;6225952;22;45404;-85
2022/11/07 04:59:43;;;;;;;;;3.50;3.50;;;;;12.92;100.00;100492.75;6254871;22;45306;-83
2022/11/07 05:02:13;;;;;;;;;5.67;2.33;;;;;12.95;100.00;100480.31;6255232;22;45395;-86
2022/11/07 05:04:39;;;;;;;;;2.00;2.00;;;;;12.80;100.00;100456.28;6254304;22;45387;-84
2022/11/07 05:07:08;;;;;;;;;3.00;3.00;;;;;12.94;100.00;100481.19;6226020;22;45302;-84
2022/11/07 05:09:36;;;;;;;;;3.67;3.67;;;;;12.95;100.00;100472.31;6254312;22;45415;-83
2022/11/07 05:12:02;;;;;;;;;3.33;3.00;;;;;12.91;100.00;100464.31;6253850;22;45269;-84
2022/11/07 05:14:30;;;;;;;;;4.00;3.75;;;;;12.92;100.00;100466.06;6223970;22;47022;-85
2022/11/07 05:16:56;;;;;;;;;2.67;2.00;;;;;12.83;100.00;100448.28;6224263;22;45395;-84
2022/11/07 05:19:22;;;;;;;;;5.00;3.00;;;;;12.94;100.00;100464.28;6224455;22;45374;-84
2022/11/07 05:23:11;;;;;;;;;4.00;4.00;;;;;12.97;100.00;100475.84;6251414;22;45341;-84
2022/11/07 05:24:36;;;;;;;;;5.25;1.75;;;;;12.98;100.00;100480.28;6251928;22;45378;-84
2022/11/07 05:27:02;;;;;;;;;5.00;4.67;;;;;13.00;100.00;100486.53;6251049;22;44847;-84
2022/11/07 05:29:28;;;;;;;;;3.33;3.33;;;;;12.95;100.00;100482.97;6250763;22;45737;-84
2022/11/07 05:31:53;;;;;;;;;4.50;1.50;;;;;12.99;100.00;100499.88;6251547;22;45587;-85
2022/11/07 05:34:19;;;;;;;;;4.50;3.75;;;;;12.95;100.00;100488.31;6252847;22;45465;-84
2022/11/07 05:36:44;;;;;;;;;3.75;3.75;;;;;12.99;100.00;100490.09;6253598;22;45322;-84
2022/11/07 05:39:10;;;;;;;;;4.33;4.33;;;;;13.03;100.00;100493.66;6226699;22;45320;-83
2022/11/07 05:41:38;;;;;;;;;3.00;3.00;;;;;13.05;100.00;100493.63;6227232;22;45409;-84
2022/11/07 05:44:04;;;;;;;;;1.00;1.00;;;;;13.07;100.00;100492.78;6253661;22;46281;-84
2022/11/07 05:46:29;;;;;;;;;2.75;2.75;;;;;13.12;100.00;100506.09;6225599;22;44920;-84
2022/11/07 05:48:58;;;;;;;;;5.50;1.25;;;;;13.06;100.00;100506.13;6254455;22;45257;-85
2022/11/07 05:51:23;;;;;;;;;2.75;2.00;;;;;13.12;100.00;100509.66;6253361;22;45476;-85
2022/11/07 05:53:49;;;;;;;;;2.67;2.33;;;;;13.05;100.00;100501.66;6254967;22;45454;-84
2022/11/07 05:56:21;;;;;;;;;3.00;1.75;;;;;13.14;100.00;100515.00;6225974;22;45294;-83
2022/11/07 05:58:46;;;;;;;;;1.25;1.25;;;;;13.10;100.00;100507.88;6254928;22;45264;-84
2022/11/07 06:01:12;;;;;;;;;2.00;2.00;;;;;13.10;100.00;100505.22;6253954;22;45335;-84
2022/11/07 06:03:40;;;;;;;;;2.00;2.00;;;;;13.09;100.00;100490.06;6228014;22;47207;-83
2022/11/07 06:06:06;;;;;;;;;2.00;2.00;;;;;13.06;100.00;100500.78;6255765;22;45378;-84
2022/11/07 06:08:32;;;;;;;;;2.75;2.25;;;;;13.02;100.00;100499.88;6253776;22;45327;-84
2022/11/07 06:10:57;;;;;;;;;4.25;2.00;;;;;12.99;100.00;100499.88;6253629;22;44857;-84
2022/11/07 06:13:23;;;;;;;;;5.67;3.00;;;;;12.85;100.00;100486.53;6227659;22;45622;-84
2022/11/07 06:15:50;;;;;;;;;3.00;3.00;;;;;12.95;100.00;100515.00;6250605;22;45482;-84
2022/11/07 06:18:23;;;;;;;;;2.67;2.67;;;;;12.91;100.00;100505.22;6226327;22;45376;-85
2022/11/07 06:20:49;;;;;;;;;2.33;2.33;;;;;12.89;100.00;100509.66;6253511;22;45697;-83
2022/11/07 06:23:14;;;;;;;;;2.33;0.00;;;;;12.81;100.00;100500.75;6225951;22;46973;-84
2022/11/07 06:25:42;;;;;;;;;3.33;2.00;;;;;12.73;100.00;100497.19;6227322;22;45411;-84
2022/11/07 06:28:13;;;;;;;;;4.33;2.00;;;;;12.85;100.00;100518.56;6253338;22;45235;-84
2022/11/07 06:30:42;;;;;;;;;5.00;3.00;;;;;12.83;100.00;100525.69;6256731;22;45395;-84
2022/11/07 06:33:11;;;;;;;;;3.00;3.00;;;;;12.80;100.00;100512.31;6229364;22;47216;-84
2022/11/07 06:35:37;;;;;;;;;4.33;4.33;;;;;12.83;100.00;100524.78;6229363;22;45437;-84
2022/11/07 06:38:05;;;;;;;;;5.33;2.67;;;;;12.78;100.00;100514.09;6256382;22;45369;-85
2022/11/07 06:40:30;;;;;;;;;3.67;3.00;;;;;12.85;100.00;100523.00;6257982;22;44792;-85
2022/11/07 06:43:13;;;;;;;;;2.00;2.00;;;;;12.87;100.00;100529.25;6230570;22;45048;-84
2022/11/07 06:45:39;;;;;;;;;3.00;3.00;;;;;12.84;100.00;100534.56;6230756;22;45314;-85
2022/11/07 06:48:07;;;;;;;;;3.00;3.00;;;;;12.87;100.00;100538.13;6257881;22;45343;-84
2022/11/07 06:50:34;;;;;;;;;1.00;1.00;;;;;12.88;100.00;100539.91;6257978;22;44715;-85
2022/11/07 06:53:05;;;;;;;;;6.33;6.00;;;;;12.88;100.00;100539.00;6231669;22;48040;-85
2022/11/07 06:55:32;;;;;;;;;3.33;3.33;;;;;12.82;100.00;100534.56;6257373;22;46013;-85
2022/11/07 06:57:59;;;;;;;;;3.00;2.50;;;;;12.93;100.00;100538.13;6233279;22;44755;-85
2022/11/07 07:00:26;;;;;;;;;4.25;3.00;;;;;12.83;100.00;100523.00;6232315;22;45415;-85
2022/11/07 07:02:55;;;;;;;;;4.33;2.00;;;;;13.01;100.00;100546.16;6228985;22;46968;-84
2022/11/07 07:06:02;;;;;;;;;3.33;2.33;;;;;13.08;100.00;100552.38;6231773;22;45308;-84
2022/11/07 07:08:27;;;;;;;;;3.00;3.00;;;;;13.14;100.00;100547.06;6256331;22;44739;-84
2022/11/07 07:10:53;;;;;;;;;4.00;2.00;;;;;13.04;100.00;100523.91;6232121;22;45333;-84
2022/11/07 07:13:18;;;;;;;;;2.67;1.67;;;;;13.18;100.00;100543.50;6229985;22;47729;-84
2022/11/07 07:15:55;;;;;;;;;1.75;1.75;;;;;13.19;100.00;100542.63;6229128;22;45285;-85
2022/11/07 07:18:21;;;;;;;;;4.67;4.67;;;;;13.26;100.00;100543.50;6257365;22;44866;-85
2022/11/07 07:20:51;;;;;;;;;4.33;4.33;;;;;13.24;100.00;100551.50;6228994;22;44821;-85
2022/11/07 07:23:19;;;;;;;;;3.75;3.50;;;;;13.26;100.00;100551.50;6227740;22;47487;-85
2022/11/07 07:25:45;;;;;;;;;2.25;2.25;;;;;13.24;100.00;100548.81;6252921;22;45322;-86
2022/11/07 07:28:11;;;;;;;;;2.50;2.25;;;;;13.26;100.00;100544.38;6251001;22;45452;-86
2022/11/07 07:30:36;;;;;;;;;3.75;3.75;;;;;13.29;100.00;100555.09;6254783;22;45455;-86
2022/11/07 07:33:02;;;;;;;;;4.00;4.00;;;;;13.30;100.00;100543.53;6253314;22;45829;-85
2022/11/07 07:35:27;;;;;;;;;4.50;3.75;;;;;13.28;100.00;100539.94;6249112;22;45270;-85
2022/11/07 07:37:53;;;;;;;;;5.00;3.00;;;;;13.43;100.00;100556.88;6254396;22;44905;-84
2022/11/07 07:43:42;;;;;;;;;3.00;3.00;;;;;13.56;100.00;100559.53;6262607;22;45486;-86
2022/11/07 07:46:13;;;;;;;;;4.33;4.33;;;;;13.55;100.00;100547.09;6260901;22;45475;-86
2022/11/07 07:48:39;;;;;;;;;8.00;4.00;;;;;13.62;100.00;100550.63;6260750;22;45091;-86
2022/11/07 07:51:05;;;;;;;;;6.67;3.00;;;;;13.69;100.00;100560.38;6232456;22;44956;-86
2022/11/07 07:53:31;;;;;;;;;4.00;3.00;;;;;13.69;100.00;100532.78;6260204;22;46856;-86
2022/11/07 07:55:58;;;;;;;;;3.00;3.00;;;;;13.82;100.00;100549.72;6261754;22;45886;-85
2022/11/07 07:58:27;;;;;;;;;4.00;4.00;;;;;13.82;100.00;100552.38;6262695;22;44815;-84
2022/11/07 08:00:56;;;;;;;;;3.33;3.33;;;;;13.91;100.00;100571.94;6236355;22;45286;-84
2022/11/07 08:03:22;;;;;;;;;3.00;2.00;;;;;13.96;100.00;100567.47;6235811;22;45524;-86
2022/11/07 08:06:10;;;;;;;;;5.67;4.00;;;;;14.03;100.00;100565.66;6214461;22;45421;-87
2022/11/07 08:08:36;;;;;;;;;4.33;4.33;;;;;14.02;100.00;100555.88;6237995;22;44772;-86
2022/11/07 08:11:10;;;;;;;;;3.50;3.50;;;;;14.14;100.00;100577.25;6233337;22;45381;-85
2022/11/07 08:13:39;;;;;;;;;3.67;3.67;;;;;14.25;100.00;100582.53;6232842;22;45345;-85
2022/11/07 08:16:08;;;;;;;;;5.67;3.67;;;;;14.28;100.00;100560.22;6261436;22;44783;-85
2022/11/07 08:18:46;;;;;;;;;3.00;2.00;;;;;14.38;100.00;100556.63;6263944;22;45309;-87
2022/11/07 08:21:18;;;;;;;;;2.50;2.00;;;;;14.50;100.00;100571.72;6265214;22;44744;-86
2022/11/07 08:23:53;;;;;;;;;3.25;3.00;;;;;14.53;100.00;100564.59;6237554;22;46754;-85
2022/11/07 08:26:20;;;;;;;;;4.00;3.00;;;;;14.46;100.00;100552.16;6237062;22;44939;-85
2022/11/07 08:28:51;;;;;;;;;5.25;3.50;;;;;14.43;100.00;100536.09;6241493;22;44677;-85
2022/11/07 08:31:35;;;;;;;;;4.00;3.00;;;;;14.69;100.00;100580.59;6265765;22;44892;-86
2022/11/07 08:36:56;;;;;;;;;3.00;1.67;;;;;14.54;100.00;100561.03;6260179;22;44868;-86
2022/11/07 08:40:13;;;;;;;;;4.00;4.00;;;;;14.76;100.00;100591.25;6240800;22;45228;-88
2022/11/07 09:56:46;;;;;;;;;4.00;4.00;;;;;16.06;100.00;100607.22;6244029;22;45201;-87
2022/11/07 10:57:20;;;;;;;;;3.50;2.00;;;;;17.07;100.00;100593.47;6261983;22;45301;-88
2022/11/07 11:00:02;;;;;;;;;3.67;3.33;;;;;17.11;100.00;100597.88;6136619;23;45217;-86
2022/11/07 11:03:07;;;;;;;;;4.25;3.75;;;;;17.09;100.00;100599.69;6140539;23;44809;-88
2022/11/07 11:06:54;;;;;;;;;4.00;3.00;;;;;17.08;100.00;100593.41;6121953;23;47012;-88
2022/11/07 11:09:34;;;;;;;;;6.33;5.00;;;;;17.16;100.00;100587.94;6132422;23;45434;-88
2022/11/07 11:12:12;;;;;;;;;4.67;3.00;;;;;16.94;100.00;100534.50;6110970;23;45503;-87
2022/11/07 11:47:40;;;;;;;;;7.50;5.75;;;;;17.55;100.00;100550.53;6265317;22;45287;-87
2022/11/07 11:53:56;;;;;;;;;0.00;0.00;;;;;17.73;100.00;100570.84;6227736;22;44934;-87
2022/11/07 11:56:52;;;;;;;;;6.50;4.00;;;;;17.59;100.00;100523.59;6204439;22;45398;-86
2022/11/07 11:59:38;;;;;;;;;3.00;2.00;;;;;17.85;100.00;100551.81;6104719;23;45500;-86
2022/11/07 12:02:56;;;;;;;;;2.25;2.00;;;;;17.89;100.00;100560.72;6085136;23;46767;-86
2022/11/07 12:05:51;;;;;;;;;2.00;2.00;;;;;17.73;100.00;100544.84;6168895;23;45747;-87
2022/11/07 12:08:16;;;;;;;;;3.00;2.00;;;;;17.90;100.00;100558.00;6175522;22;45170;-87
2022/11/07 12:10:48;;;;;;;;;7.67;4.00;;;;;17.87;100.00;100567.94;6203841;22;45651;-86
2022/11/07 12:17:18;;;;;;;;;4.25;2.25;;;;;17.73;100.00;100566.38;6020029;23;44959;-86
2022/11/07 12:19:56;;;;;;;;;6.00;5.67;;;;;17.78;100.00;100542.06;6017249;23;44748;-87
2022/11/07 12:23:11;;;;;;;;;8.33;5.00;;;;;17.73;100.00;100544.84;6131989;23;45647;-87
2022/11/07 12:26:39;;;;;;;;;3.50;3.50;;;;;17.65;100.00;100544.06;6139989;22;45572;-86
2022/11/07 12:29:47;;;;;;;;;3.25;3.25;;;;;17.51;100.00;100536.28;6074036;23;45372;-86
2022/11/07 12:32:28;;;;;;;;;6.00;4.50;;;;;17.57;100.00;100546.00;6085529;23;45657;-88
2022/11/07 12:35:51;;;;;;;;;3.00;3.00;;;;;17.62;100.00;100538.78;6092212;23;45555;-88
2022/11/07 12:39:07;;;;;;;;;3.25;3.00;;;;;17.77;100.00;100535.81;6075682;23;47445;-89
2022/11/07 12:42:37;;;;;;;;;3.00;3.00;;;;;17.80;100.00;100538.41;6078426;23;45336;-89
2022/11/07 12:45:30;;;;;;;;;2.25;2.25;;;;;17.84;100.00;100538.41;5993229;23;45455;-88
2022/11/07 12:48:10;;;;;;;;;5.25;4.25;;;;;17.91;100.00;100535.56;5990180;23;45743;-88
2022/11/07 12:50:52;;;;;;;;;2.50;2.00;;;;;17.93;100.00;100528.34;5990237;23;45382;-87
2022/11/07 13:00:30;;;;;;;;;2.00;2.00;;;;;18.04;100.00;100477.00;6018083;23;45324;-87
2022/11/07 13:03:39;;;;;;;;;2.50;1.00;;;;;18.23;100.00;100519.69;6020103;23;45396;-86
2022/11/07 13:10:15;;;;;;;;;;;;;;;;;;;;;
2022/11/07 13:13:51;;;;;;;;;2.00;2.00;;;;;17.85;100.00;100494.44;5945500;23;65111;-87
2022/11/07 13:17:05;;;;;;;;;2.00;2.00;;;;;17.70;100.00;100485.72;5914854;23;46362;-86
2022/11/07 13:29:44;;;;;;;;;2.50;2.00;;;;;17.83;100.00;100501.63;6081282;23;45395;-87
2022/11/07 13:32:49;;;;;;;;;2.50;1.75;;;;;17.71;100.00;100476.72;6081981;23;45679;-86
2022/11/07 13:35:51;;;;;;;;;1.00;1.00;;;;;18.04;100.00;100522.75;6042790;23;45424;-85
2022/11/07 13:38:49;;;;;;;;;1.00;1.00;;;;;17.90;100.00;100487.19;6046886;23;45347;-85
2022/11/07 13:41:15;;;;;;;;;3.00;2.50;;;;;18.02;100.00;100505.75;6042372;23;45434;-86
2022/11/07 13:43:59;;;;;;;;;4.25;4.00;;;;;17.90;100.00;100484.50;6045797;23;45312;-86
2022/11/07 13:46:57;;;;;;;;;3.00;3.00;;;;;17.86;100.00;100478.28;6047816;23;44895;-86
2022/11/07 13:49:59;;;;;;;;;2.75;1.00;;;;;17.95;100.00;100493.34;6017544;23;45417;-85
2022/11/07 13:52:51;;;;;;;;;2.00;2.00;;;;;17.77;100.00;100473.94;6025051;23;47126;-86
2022/11/07 14:01:21;;;;;;;;;2.00;1.00;;;;;17.40;100.00;100454.91;6255495;22;44819;-84
2022/11/07 14:03:52;;;;;;;;;3.75;2.00;;;;;17.54;100.00;100477.06;6251852;22;46817;-84
2022/11/07 14:06:20;;;;;;;;;1.25;1.25;;;;;17.50;100.00;100478.03;6227567;22;44796;-85
2022/11/07 14:09:00;;;;;;;;;3.00;1.00;;;;;17.46;100.00;100470.06;6253284;22;45388;-85
2022/11/07 14:19:07;;;;;;;;;2.50;2.00;;;;;17.78;100.00;100451.50;6030964;23;45283;-86
2022/11/07 14:21:49;;;;;;;;;1.75;1.75;;;;;17.73;100.00;100449.81;5991931;23;45415;-87
2022/11/07 14:24:27;;;;;;;;;3.00;3.00;;;;;17.90;100.00;100487.19;5961898;23;45255;-85
2022/11/07 14:27:07;;;;;;;;;3.50;2.25;;;;;17.80;100.00;100476.56;5962510;23;45528;-84
2022/11/07 14:30:12;;;;;;;;;;;;;;;;;;;;;
2022/11/07 14:33:12;;;;;;;;;4.00;2.00;;;;;17.65;100.00;100490.28;5988001;23;68046;-84
2022/11/07 14:35:44;;;;;;;;;1.25;1.25;;;;;17.38;100.00;100457.63;5959129;23;45423;-85
2022/11/07 14:38:15;;;;;;;;;3.00;2.00;;;;;17.22;100.00;100439.13;5985733;23;46680;-85
2022/11/07 14:40:43;;;;;;;;;1.50;1.50;;;;;17.15;100.00;100433.88;5989136;23;44854;-83
2022/11/07 14:43:22;;;;;;;;;2.50;2.50;;;;;17.33;100.00;100475.66;5990126;23;44844;-86
2022/11/07 14:46:12;;;;;;;;;;;;;;;;;;;;;
2022/11/07 14:48:46;;;;;;;;;2.75;2.75;;;;;17.24;100.00;100461.50;5990387;23;75205;-84
2022/11/07 14:51:14;;;;;;;;;2.00;2.00;;;;;17.34;100.00;100477.41;5995062;23;44889;-84
2022/11/07 14:54:09;;;;;;;;;2.00;2.00;;;;;17.16;100.00;100445.50;6049940;23;45290;-85
2022/11/07 15:01:07;;;;;;;;;4.00;2.67;;;;;17.22;100.00;100492.88;6152637;23;46121;-85
2022/11/07 15:04:14;;;;;;;;;2.00;2.00;;;;;16.97;100.00;100459.25;6133900;23;45425;-86
2022/11/07 15:06:43;;;;;;;;;4.33;4.00;;;;;16.98;100.00;100462.81;6135219;23;45306;-86
2022/11/07 15:09:12;;;;;;;;;2.75;2.75;;;;;16.91;100.00;100462.06;6134927;23;44890;-85
2022/11/07 15:11:58;;;;;;;;;2.50;2.50;;;;;16.92;100.00;100479.03;6135338;23;46972;-86
2022/11/07 15:14:30;;;;;;;;;6.25;3.50;;;;;16.93;100.00;100486.22;6134946;23;45329;-86
2022/11/07 15:17:05;;;;;;;;;3.00;3.00;;;;;16.72;100.00;100447.09;6258038;22;44768;-86
2022/11/07 15:19:40;;;;;;;;;3.00;3.00;;;;;16.60;100.00;100441.03;6258007;22;45357;-86
2022/11/07 15:22:39;;;;;;;;;;;;;;;;;;;;;
2022/11/07 15:29:41;;;;;;;;;5.00;3.50;;;;;16.52;100.00;100429.53;6242172;22;45278;-86
2022/11/07 15:32:18;;;;;;;;;3.00;3.00;;;;;16.75;100.00;100474.78;6215773;22;45190;-86
2022/11/07 15:35:00;;;;;;;;;6.00;5.00;;;;;16.69;100.00;100477.59;6248956;22;45259;-87
2022/11/07 15:37:26;;;;;;;;;7.00;4.00;;;;;16.68;100.00;100481.16;6258319;22;45151;-88
2022/11/07 15:40:36;;;;;;;;;2.75;2.75;;;;;16.60;100.00;100461.59;6233241;22;44747;-86